createdAt,value
2019-05-09T00:01:35.352Z,10.27
2019-05-09T00:04:05.027Z,10.10
2019-05-09T00:06:34.363Z,11.00
2019-05-09T00:09:05.309Z,10.80
2019-05-09T00:11:34.840Z,10.00
2019-05-09T00:14:04.695Z,11.00
2019-05-09T00:16:34.126Z,10.53
2019-05-09T00:19:03.570Z,10.47
2019-05-09T00:21:40.202Z,10.53
2019-05-09T00:24:09.515Z,10.50
2019-05-09T00:26:38.776Z,10.03
2019-05-09T00:29:14.068Z,11.50
2019-05-09T00:32:07.812Z,10.43
2019-05-09T00:34:49.706Z,9.57
2019-05-09T00:37:20.652Z,10.10
2019-05-09T00:39:49.924Z,8.93
2019-05-09T00:42:19.186Z,7.97
2019-05-09T00:44:50.363Z,6.80
2019-05-09T00:47:25.837Z,6.60
2019-05-09T00:49:55.140Z,7.00
2019-05-09T00:52:24.529Z,7.57
2019-05-09T00:54:56.104Z,7.00
2019-05-09T00:57:34.392Z,7.90
2019-05-09T01:00:09.402Z,6.93
2019-05-09T01:02:38.684Z,7.33
2019-05-09T01:05:08.767Z,6.07
2019-05-09T01:07:38.044Z,5.17
2019-05-09T01:10:07.940Z,5.30
2019-05-09T01:12:37.218Z,4.57
2019-05-09T01:15:07.199Z,4.47
2019-05-09T01:17:36.455Z,4.10
2019-05-09T01:20:06.596Z,3.20
2019-05-09T01:22:35.860Z,2.90
2019-05-09T01:25:05.698Z,3.20
2019-05-09T01:27:35.012Z,2.90
2019-05-09T01:30:04.941Z,2.30
2019-05-09T01:33:05.836Z,2.00
2019-05-09T01:35:35.118Z,2.10
2019-05-09T01:38:04.517Z,2.00
2019-05-09T01:40:33.859Z,1.80
2019-05-09T01:43:04.467Z,1.60
2019-05-09T01:45:34.292Z,1.70
2019-05-09T01:48:03.763Z,1.67
2019-05-09T01:50:34.032Z,1.40
2019-05-09T01:53:04.110Z,1.50
2019-05-09T01:55:51.057Z,1.40
2019-05-09T02:16:23.836Z,1.00
2019-05-09T02:19:04.052Z,1.10
2019-05-09T02:21:34.534Z,0.90
2019-05-09T02:24:04.056Z,0.90
2019-05-09T02:26:33.577Z,1.07
2019-05-09T02:29:03.436Z,0.90
2019-05-09T02:31:35.457Z,1.10
2019-05-09T02:34:04.854Z,0.93
2019-05-09T02:36:34.642Z,1.30
2019-05-09T02:39:09.091Z,1.40
2019-05-09T02:41:39.009Z,1.10
2019-05-09T02:44:09.257Z,1.00
2019-05-09T02:46:44.536Z,1.20
2019-05-09T02:49:13.840Z,1.10
2019-05-09T02:51:43.097Z,0.97
2019-05-09T02:54:12.392Z,1.10
2019-05-09T02:56:41.671Z,1.13
2019-05-09T02:59:18.932Z,0.80
2019-05-09T03:01:58.600Z,0.90
2019-05-09T03:04:28.425Z,0.90
2019-05-09T03:06:59.681Z,1.03
2019-05-09T03:09:29.029Z,1.10
2019-05-09T03:11:59.258Z,0.60
2019-05-09T03:14:29.361Z,1.00
2019-05-09T03:16:59.062Z,0.70
2019-05-09T03:19:29.661Z,0.90
2019-05-09T03:22:03.344Z,0.90
2019-05-09T03:24:32.630Z,0.90
2019-05-09T03:27:08.506Z,0.90
2019-05-09T03:29:44.362Z,0.93
2019-05-09T03:32:13.884Z,1.13
2019-05-09T03:34:43.187Z,1.00
2019-05-09T03:37:12.466Z,0.90
2019-05-09T03:39:41.743Z,0.80
2019-05-09T03:42:11.028Z,1.00
2019-05-09T03:44:40.296Z,1.00
2019-05-09T03:47:28.501Z,0.90
2019-05-09T03:50:11.741Z,1.10
2019-05-09T03:52:41.023Z,1.10
2019-05-09T03:55:12.902Z,1.10
2019-05-09T03:57:47.660Z,0.83
2019-05-09T04:00:18.053Z,1.17
2019-05-09T04:02:47.598Z,1.00
2019-05-09T04:05:18.098Z,0.90
2019-05-09T04:07:48.510Z,1.07
2019-05-09T04:10:18.102Z,1.10
2019-05-09T04:12:56.302Z,1.10
2019-05-09T04:15:21.162Z,1.27
2019-05-09T04:17:50.422Z,1.10
2019-05-09T04:20:20.274Z,1.17
2019-05-09T04:22:49.568Z,1.10
2019-05-09T04:25:23.282Z,1.10
2019-05-09T04:27:53.239Z,1.20
2019-05-09T04:30:22.506Z,1.07
2019-05-09T04:32:51.759Z,1.13
2019-05-09T04:35:21.037Z,1.10
2019-05-09T04:37:50.296Z,1.20
2019-05-09T04:40:19.608Z,1.07
2019-05-09T04:42:48.876Z,1.17
2019-05-09T04:45:28.364Z,1.20
2019-05-09T04:47:57.854Z,1.10
2019-05-09T04:50:27.958Z,1.17
2019-05-09T04:52:57.991Z,1.00
2019-05-09T04:55:29.202Z,1.30
2019-05-09T04:58:00.260Z,1.10
2019-05-09T05:00:48.885Z,1.13
2019-05-09T05:03:18.395Z,1.17
2019-05-09T05:05:48.272Z,1.17
2019-05-09T05:08:18.208Z,1.00
2019-05-09T05:10:47.830Z,0.90
2019-05-09T05:13:26.320Z,1.00
2019-05-09T05:15:48.186Z,1.10
2019-05-09T05:18:20.305Z,1.30
2019-05-09T05:20:48.500Z,1.37
2019-05-09T05:23:24.228Z,1.60
2019-05-09T05:25:53.534Z,1.90
2019-05-09T05:28:22.798Z,1.63
2019-05-09T05:30:52.105Z,1.40
2019-05-09T05:33:45.755Z,1.53
2019-05-09T05:36:15.298Z,1.50
2019-05-09T05:38:44.577Z,1.53
2019-05-09T05:41:13.854Z,1.30
2019-05-09T05:43:44.726Z,1.20
2019-05-09T05:46:51.562Z,1.10
2019-05-09T05:49:21.172Z,1.20
2019-05-09T05:51:50.473Z,1.00
2019-05-09T05:54:21.341Z,1.63
2019-05-09T05:56:51.119Z,1.83
2019-05-09T05:59:20.597Z,1.70
2019-05-09T06:01:50.429Z,1.33
2019-05-09T06:04:27.641Z,1.20
2019-05-09T06:06:58.834Z,1.23
2019-05-09T06:09:28.234Z,1.30
2019-05-09T06:11:57.879Z,1.30
2019-05-09T06:14:28.592Z,1.10
2019-05-09T06:16:59.050Z,1.33
2019-05-09T06:19:28.757Z,1.30
2019-05-09T06:21:58.253Z,1.30
2019-05-09T06:24:28.399Z,1.03
2019-05-09T06:26:58.546Z,1.00
2019-05-09T06:29:28.873Z,1.00
2019-05-09T06:31:58.606Z,1.00
2019-05-09T06:34:27.929Z,1.20
2019-05-09T06:36:58.569Z,1.07
2019-05-09T06:39:28.585Z,1.33
2019-05-09T06:41:57.872Z,1.10
2019-05-09T06:44:42.902Z,0.77
2019-05-09T06:47:19.454Z,1.30
2019-05-09T06:49:51.960Z,1.40
2019-05-09T06:52:21.285Z,1.20
2019-05-09T06:54:50.544Z,1.20
2019-05-09T06:57:19.850Z,1.20
2019-05-09T06:59:49.128Z,1.27
2019-05-09T07:02:38.805Z,1.03
2019-05-09T07:05:14.235Z,1.00
2019-05-09T07:07:48.238Z,1.03
2019-05-09T07:10:17.859Z,1.00
2019-05-09T07:12:48.670Z,0.87
2019-05-09T07:15:18.635Z,0.93
2019-05-09T07:17:48.252Z,0.83
2019-05-09T07:20:18.253Z,0.93
2019-05-09T07:22:50.608Z,1.00
2019-05-09T07:25:38.414Z,1.07
2019-05-09T07:28:07.894Z,1.00
2019-05-09T07:30:59.056Z,1.27
2019-05-09T07:33:35.138Z,0.80
2019-05-09T07:36:04.708Z,1.00
2019-05-09T07:38:34.569Z,0.83
2019-05-09T07:41:04.133Z,0.90
2019-05-09T07:43:33.406Z,0.83
2019-05-09T07:46:28.600Z,0.70
2019-05-09T07:48:59.072Z,0.88
2019-05-09T07:51:28.353Z,0.72
2019-05-09T07:53:58.977Z,0.68
2019-05-09T07:56:28.645Z,0.85
2019-05-09T07:58:58.635Z,0.88
2019-05-09T08:01:28.322Z,0.90
2019-05-09T08:03:58.497Z,0.75
2019-05-09T08:06:29.710Z,0.80
2019-05-09T08:08:59.130Z,1.00
2019-05-09T08:11:31.805Z,0.80
2019-05-09T08:13:59.374Z,1.00
2019-05-09T08:16:28.632Z,0.78
2019-05-09T08:18:58.058Z,0.80
2019-05-09T08:21:27.856Z,0.88
2019-05-09T08:23:57.993Z,0.98
2019-05-09T08:26:29.678Z,0.95
2019-05-09T08:28:58.712Z,0.95
2019-05-09T08:31:28.317Z,1.00
2019-05-09T08:33:59.441Z,0.93
2019-05-09T08:36:28.687Z,1.07
2019-05-09T08:38:58.841Z,1.05
2019-05-09T08:41:29.172Z,1.20
2019-05-09T08:43:58.652Z,1.10
2019-05-09T08:46:28.759Z,1.40
2019-05-09T08:48:58.192Z,1.20
2019-05-09T08:51:56.085Z,1.25
2019-05-09T08:54:39.046Z,1.50
2019-05-09T08:57:10.546Z,1.40
2019-05-09T08:59:39.878Z,1.30
2019-05-09T09:02:18.542Z,1.30
2019-05-09T09:04:40.142Z,1.40
2019-05-09T09:07:09.852Z,1.60
2019-05-09T09:09:39.128Z,1.37
2019-05-09T09:12:23.065Z,1.40
2019-05-09T09:14:39.686Z,1.50
2019-05-09T09:17:08.954Z,1.40
2019-05-09T09:19:38.735Z,1.60
2019-05-09T09:22:08.794Z,1.60
2019-05-09T09:24:38.559Z,1.53
2019-05-09T09:27:07.937Z,1.60
2019-05-09T09:29:37.984Z,1.60
2019-05-09T09:32:08.425Z,1.60
2019-05-09T09:34:38.221Z,1.67
2019-05-09T09:37:11.226Z,1.70
2019-05-09T09:39:44.487Z,1.80
2019-05-09T09:42:09.470Z,1.90
2019-05-09T09:44:39.277Z,1.87
2019-05-09T09:47:08.950Z,1.70
2019-05-09T09:49:38.537Z,1.70
2019-05-09T09:52:08.749Z,1.60
2019-05-09T09:54:38.651Z,1.30
2019-05-09T09:57:09.755Z,1.40
2019-05-09T09:59:49.120Z,1.60
2019-05-09T10:02:21.017Z,1.60
2019-05-09T10:04:50.275Z,1.57
2019-05-09T10:07:19.557Z,1.35
2019-05-09T10:09:48.852Z,1.25
2019-05-09T10:12:18.329Z,1.50
2019-05-09T10:15:00.581Z,1.52
2019-05-09T10:17:42.924Z,1.40
2019-05-09T10:20:21.183Z,1.05
2019-05-09T10:22:59.818Z,0.90
2019-05-09T10:25:21.428Z,0.98
2019-05-09T10:27:50.514Z,0.78
2019-05-09T10:30:24.526Z,1.10
2019-05-09T10:32:53.754Z,0.88
2019-05-09T10:35:24.092Z,1.00
2019-05-09T10:37:53.340Z,0.88
2019-05-09T10:40:23.696Z,0.90
2019-05-09T10:43:34.043Z,1.32
2019-05-09T10:46:19.318Z,1.10
2019-05-09T10:48:58.441Z,0.90
2019-05-09T10:51:26.979Z,0.60
2019-05-09T10:53:58.537Z,0.50
2019-05-09T10:56:28.055Z,0.70
2019-05-09T10:58:58.459Z,0.72
2019-05-09T11:01:29.402Z,0.53
2019-05-09T11:03:59.351Z,0.80
2019-05-09T11:06:29.123Z,0.62
2019-05-09T11:08:58.816Z,0.90
2019-05-09T11:11:28.754Z,0.75
2019-05-09T11:13:58.901Z,0.70
2019-05-09T11:16:41.749Z,0.90
2019-05-09T11:18:59.329Z,0.80
2019-05-09T11:21:28.988Z,1.15
2019-05-09T11:23:58.753Z,1.52
2019-05-09T11:26:28.864Z,0.80
2019-05-09T11:28:58.950Z,1.00
2019-05-09T11:31:29.549Z,0.77
2019-05-09T11:33:59.194Z,0.77
2019-05-09T11:36:28.437Z,0.70
2019-05-09T11:39:00.654Z,0.97
2019-05-09T11:41:29.801Z,0.77
2019-05-09T11:44:00.129Z,0.80
2019-05-09T11:46:29.345Z,1.07
2019-05-09T11:48:59.066Z,0.67
2019-05-09T11:51:29.414Z,0.60
2019-05-09T11:53:58.777Z,0.60
2019-05-09T11:56:28.036Z,0.70
2019-05-09T11:58:57.918Z,0.77
2019-05-09T12:01:29.230Z,0.70
2019-05-09T12:03:58.400Z,0.90
2019-05-09T12:06:29.034Z,0.70
2019-05-09T12:08:59.021Z,0.60
2019-05-09T12:11:28.441Z,1.10
2019-05-09T12:13:58.336Z,0.70
2019-05-09T12:16:28.120Z,0.73
2019-05-09T12:18:58.350Z,0.93
2019-05-09T12:21:28.470Z,0.70
2019-05-09T12:23:58.506Z,0.83
2019-05-09T12:26:29.125Z,0.77
2019-05-09T12:28:58.751Z,0.80
2019-05-09T12:31:29.015Z,0.60
2019-05-09T12:33:59.419Z,0.63
2019-05-09T12:36:30.610Z,0.70
2019-05-09T12:38:59.912Z,1.30
2019-05-09T12:41:31.654Z,1.60
2019-05-09T12:44:00.323Z,1.27
2019-05-09T12:46:29.550Z,1.10
2019-05-09T12:48:59.455Z,1.40
2019-05-09T12:51:28.771Z,1.10
2019-05-09T12:53:58.217Z,1.10
2019-05-09T12:56:28.444Z,3.00
2019-05-09T12:58:58.175Z,1.10
2019-05-09T13:01:27.657Z,0.80
2019-05-09T13:03:58.341Z,0.83
2019-05-09T13:06:29.616Z,0.77
2019-05-09T13:08:58.924Z,0.63
2019-05-09T13:11:28.310Z,0.67
2019-05-09T13:13:57.603Z,0.40
2019-05-09T13:16:47.576Z,0.40
2019-05-09T13:19:08.099Z,0.60
2019-05-09T13:21:38.913Z,0.40
2019-05-09T13:24:08.747Z,0.50
2019-05-09T13:26:38.629Z,0.50
2019-05-09T13:29:08.447Z,0.43
2019-05-09T13:31:39.436Z,0.80
2019-05-09T13:34:08.935Z,0.30
2019-05-09T13:36:38.163Z,0.70
2019-05-09T13:39:09.869Z,0.57
2019-05-09T13:41:39.909Z,0.30
2019-05-09T13:44:13.672Z,0.33
2019-05-09T13:46:40.260Z,0.40
2019-05-09T13:49:14.780Z,0.40
2019-05-09T13:51:49.448Z,1.53
2019-05-09T13:54:13.611Z,1.00
2019-05-09T13:56:42.885Z,0.50
2019-05-09T13:59:12.307Z,0.40
2019-05-09T14:01:41.560Z,0.40
2019-05-09T14:04:10.845Z,0.40
2019-05-09T14:06:40.109Z,0.70
2019-05-09T14:09:12.916Z,0.60
2019-05-09T14:11:42.169Z,0.60
2019-05-09T14:14:12.230Z,0.60
2019-05-09T14:16:41.550Z,0.50
2019-05-09T14:19:29.178Z,0.57
2019-05-09T14:21:41.774Z,0.50
2019-05-09T14:24:15.383Z,1.30
2019-05-09T14:26:42.127Z,0.57
2019-05-09T14:29:13.279Z,0.67
2019-05-09T14:31:42.343Z,0.77
2019-05-09T14:34:11.612Z,0.50
2019-05-09T14:36:45.428Z,0.37
2019-05-09T14:39:11.907Z,0.50
2019-05-09T14:41:41.117Z,0.60
2019-05-09T14:44:10.395Z,0.50
2019-05-09T14:46:39.628Z,0.50
2019-05-09T14:49:09.037Z,0.50
2019-05-09T14:51:39.705Z,0.40
2019-05-09T14:54:08.971Z,0.50
2019-05-09T14:56:42.183Z,0.40
2019-05-09T14:59:09.991Z,0.60
2019-05-09T15:01:43.716Z,0.40
2019-05-09T15:04:10.612Z,0.60
2019-05-09T15:06:39.860Z,0.50
2019-05-09T15:09:09.496Z,0.50
2019-05-09T15:11:39.771Z,0.43
2019-05-09T15:14:09.335Z,0.47
2019-05-09T15:16:39.371Z,0.50
2019-05-09T15:19:08.903Z,0.53
2019-05-09T15:21:38.529Z,0.50
2019-05-09T15:24:09.244Z,0.60
2019-05-09T15:26:38.756Z,0.73
2019-05-09T15:29:08.387Z,0.60
2019-05-09T15:31:39.235Z,0.60
2019-05-09T15:34:10.380Z,0.50
2019-05-09T15:36:39.588Z,0.67
2019-05-09T15:39:08.909Z,0.90
2019-05-09T15:41:38.674Z,0.70
2019-05-09T15:44:08.584Z,0.67
2019-05-09T15:46:51.453Z,0.50
2019-05-09T15:49:20.744Z,0.60
2019-05-09T15:51:50.000Z,0.70
2019-05-09T15:54:19.229Z,0.60
2019-05-09T15:56:48.654Z,0.40
2019-05-09T15:59:18.558Z,0.40
2019-05-09T16:01:49.093Z,0.40
2019-05-09T16:04:19.748Z,0.70
2019-05-09T16:06:50.812Z,0.30
2019-05-09T16:09:20.046Z,0.57
2019-05-09T16:11:49.320Z,0.37
2019-05-09T16:14:18.732Z,0.60
2019-05-09T16:16:48.082Z,0.60
2019-05-09T16:19:17.314Z,0.60
2019-05-09T16:21:47.757Z,0.40
2019-05-09T16:24:18.885Z,0.90
2019-05-09T16:26:48.892Z,0.60
2019-05-09T16:29:19.422Z,0.57
2019-05-09T16:31:48.740Z,0.50
2019-05-09T16:34:18.094Z,0.50
2019-05-09T16:36:48.169Z,0.30
2019-05-09T16:39:18.035Z,0.60
2019-05-09T16:41:48.395Z,0.47
2019-05-09T16:44:18.676Z,0.40
2019-05-09T16:46:48.725Z,0.60
2019-05-09T16:49:19.847Z,0.60
2019-05-09T16:51:49.180Z,0.60
2019-05-09T16:54:18.435Z,0.70
2019-05-09T16:56:47.681Z,0.40
2019-05-09T16:59:17.905Z,0.47
2019-05-09T17:01:50.373Z,0.60
2019-05-09T17:04:19.315Z,0.40
2019-05-09T17:06:49.668Z,0.40
2019-05-09T17:09:19.214Z,0.60
2019-05-09T17:11:48.536Z,0.50
2019-05-09T17:14:19.300Z,0.40
2019-05-09T17:16:52.626Z,0.60
2019-05-09T17:19:19.749Z,0.40
2019-05-09T17:22:01.168Z,0.67
2019-05-09T17:24:30.440Z,0.57
2019-05-09T17:26:59.706Z,0.60
2019-05-09T17:29:28.911Z,0.50
2019-05-09T17:31:58.566Z,1.30
2019-05-09T17:34:28.694Z,1.50
2019-05-09T17:36:58.047Z,1.10
2019-05-09T17:39:27.866Z,0.90
2019-05-09T17:41:58.334Z,0.80
2019-05-09T17:44:28.212Z,0.73
2019-05-09T17:46:58.167Z,0.70
2019-05-09T17:49:28.147Z,0.60
2019-05-09T17:51:58.423Z,0.90
2019-05-09T17:54:28.711Z,0.70
2019-05-09T17:56:58.182Z,0.50
2019-05-09T17:59:29.229Z,0.63
2019-05-09T18:01:58.417Z,0.67
2019-05-09T18:04:28.759Z,0.47
2019-05-09T18:06:58.681Z,0.70
2019-05-09T18:09:28.692Z,0.63
2019-05-09T18:11:58.191Z,1.10
2019-05-09T18:14:27.765Z,1.47
2019-05-09T18:16:58.141Z,2.83
2019-05-09T18:19:29.319Z,3.07
2019-05-09T18:21:58.951Z,2.60
2019-05-09T18:24:28.810Z,2.50
2019-05-09T18:26:58.559Z,2.10
2019-05-09T18:29:27.859Z,1.77
2019-05-09T18:32:22.077Z,2.00
2019-05-09T18:34:53.290Z,1.80
2019-05-09T18:37:22.525Z,1.70
2019-05-09T18:39:51.857Z,6.30
2019-05-09T18:42:21.139Z,7.17
2019-05-09T18:44:50.537Z,4.13
2019-05-09T18:47:19.875Z,1.90
2019-05-09T18:49:49.103Z,1.70
2019-05-09T18:52:18.516Z,1.70
2019-05-09T18:54:47.769Z,2.00
2019-05-09T18:57:17.023Z,2.20
2019-05-09T18:59:46.266Z,2.30
2019-05-09T19:02:15.523Z,2.23
2019-05-09T19:04:44.765Z,2.50
2019-05-09T19:07:22.534Z,1.90
2019-05-09T19:09:44.962Z,3.13
2019-05-09T19:12:14.263Z,8.47
2019-05-09T19:14:44.611Z,4.57
2019-05-09T19:17:38.804Z,1.50
2019-05-09T19:20:15.818Z,1.10
2019-05-09T19:22:45.074Z,1.40
2019-05-09T19:25:14.706Z,1.27
2019-05-09T19:27:43.960Z,1.50
2019-05-09T19:30:13.219Z,1.33
2019-05-09T19:32:42.558Z,1.80
2019-05-09T19:35:11.883Z,1.47
2019-05-09T19:37:41.099Z,1.83
2019-05-09T19:40:11.357Z,2.20
2019-05-09T19:42:40.590Z,2.37
2019-05-09T19:45:09.942Z,2.40
2019-05-09T19:47:39.167Z,2.60
2019-05-09T19:50:09.444Z,2.87
2019-05-09T19:52:38.953Z,2.97
2019-05-09T19:55:08.456Z,2.77
2019-05-09T19:57:37.677Z,3.20
2019-05-09T20:00:07.242Z,4.10
2019-05-09T20:02:36.479Z,3.43
2019-05-09T20:05:05.858Z,2.30
2019-05-09T20:07:35.085Z,2.13
2019-05-09T20:10:22.803Z,1.70
2019-05-09T20:13:26.139Z,1.60
2019-05-09T20:15:55.362Z,1.60
2019-05-09T20:18:24.639Z,1.70
2019-05-09T20:20:53.912Z,1.60
2019-05-09T20:23:23.179Z,1.67
2019-05-09T20:25:52.410Z,1.90
2019-05-09T20:28:21.643Z,1.50
2019-05-09T20:30:50.898Z,1.60
2019-05-09T20:33:20.130Z,1.77
2019-05-09T20:35:49.500Z,1.80
2019-05-09T20:38:18.914Z,1.60
2019-05-09T20:40:48.337Z,1.90
2019-05-09T20:43:17.769Z,1.60
2019-05-09T20:45:47.243Z,1.40
2019-05-09T20:48:16.648Z,1.40
2019-05-09T20:50:45.926Z,1.50
2019-05-09T20:53:15.375Z,1.37
2019-05-09T20:55:44.830Z,1.40
2019-05-09T20:58:14.246Z,1.60
2019-05-09T21:00:43.682Z,1.70
2019-05-09T21:03:13.114Z,1.80
2019-05-09T21:05:42.547Z,1.50
2019-05-09T21:08:11.939Z,1.80
2019-05-09T21:10:41.440Z,1.70
2019-05-09T21:13:10.859Z,1.73
2019-05-09T21:15:40.333Z,1.63
2019-05-09T21:18:10.149Z,1.60
2019-05-09T21:20:39.710Z,1.57
2019-05-09T21:23:22.891Z,1.47
2019-05-09T21:25:40.454Z,1.53
2019-05-09T21:28:09.901Z,1.30
2019-05-09T21:30:39.370Z,1.23
2019-05-09T21:33:08.771Z,1.20
2019-05-09T21:35:38.023Z,1.30
2019-05-09T21:38:08.845Z,1.20
2019-05-09T21:40:38.093Z,1.47
2019-05-09T21:43:07.361Z,1.20
2019-05-09T21:45:36.601Z,1.30
2019-05-09T21:48:05.852Z,1.33
2019-05-09T21:50:35.201Z,1.43
2019-05-09T21:53:04.461Z,1.30
2019-05-09T21:55:33.717Z,1.20
2019-05-09T21:58:02.952Z,1.33
2019-05-09T22:00:36.778Z,1.20
2019-05-09T22:03:06.938Z,1.20
2019-05-09T22:05:36.293Z,1.40
2019-05-09T22:08:05.646Z,1.33
2019-05-09T22:10:34.960Z,1.20
2019-05-09T22:13:04.203Z,1.30
2019-05-09T22:15:33.573Z,1.37
2019-05-09T22:18:02.818Z,1.30
2019-05-09T22:20:32.027Z,1.37
2019-05-09T22:23:01.286Z,1.47
2019-05-09T22:25:30.521Z,1.20
2019-05-09T22:27:59.774Z,1.10
2019-05-09T22:30:28.993Z,1.30
2019-05-09T22:32:58.248Z,1.33
2019-05-09T22:35:27.468Z,1.20
2019-05-09T22:37:56.727Z,1.30
2019-05-09T22:40:25.947Z,1.20
2019-05-09T22:42:55.231Z,1.10
2019-05-09T22:45:24.454Z,1.17
2019-05-09T22:47:53.696Z,1.20
2019-05-09T22:50:22.917Z,1.13
2019-05-09T22:52:52.177Z,1.40
2019-05-09T22:55:21.399Z,1.40
2019-05-09T22:57:50.666Z,1.00
2019-05-09T23:00:19.889Z,1.17
2019-05-09T23:02:49.136Z,1.23
2019-05-09T23:05:18.646Z,1.20
2019-05-09T23:07:47.908Z,0.97
2019-05-09T23:10:17.127Z,1.10
2019-05-09T23:12:46.414Z,1.07
2019-05-09T23:15:17.416Z,1.17
2019-05-09T23:17:46.739Z,1.10
2019-05-09T23:20:34.010Z,1.03
2019-05-09T23:23:23.943Z,1.20
2019-05-09T23:25:53.179Z,1.17
2019-05-09T23:28:22.700Z,1.10
2019-05-09T23:30:53.625Z,1.20
2019-05-09T23:33:24.433Z,1.40
2019-05-09T23:35:53.658Z,1.30
2019-05-09T23:38:22.916Z,1.10
2019-05-09T23:40:52.131Z,1.30
2019-05-09T23:43:21.402Z,1.47
2019-05-09T23:45:50.642Z,1.10
2019-05-09T23:48:19.911Z,1.50
2019-05-09T23:50:49.163Z,1.30
2019-05-09T23:53:31.691Z,1.30
2019-05-09T23:56:18.468Z,1.20
2019-05-09T23:59:05.531Z,1.50
